createdAt,value
2018-04-17T00:00:24.968Z,13.79
2018-04-17T00:02:53.510Z,13.78
2018-04-17T00:05:21.954Z,13.78
2018-04-17T00:07:50.070Z,13.79
2018-04-17T00:10:18.935Z,13.80
2018-04-17T00:12:46.440Z,13.78
2018-04-17T00:15:19.019Z,13.73
2018-04-17T00:17:46.959Z,13.66
2018-04-17T00:20:14.475Z,13.66
2018-04-17T00:22:42.269Z,13.63
2018-04-17T00:25:09.855Z,13.62
2018-04-17T00:27:37.329Z,13.61
2018-04-17T00:30:05.081Z,13.59
2018-04-17T00:32:32.549Z,13.58
2018-04-17T00:35:00.029Z,13.58
2018-04-17T00:37:28.096Z,13.57
2018-04-17T00:39:55.638Z,13.56
2018-04-17T00:42:23.790Z,13.56
2018-04-17T00:44:51.311Z,13.54
2018-04-17T00:47:18.817Z,13.53
2018-04-17T00:49:47.329Z,13.50
2018-04-17T00:52:14.992Z,13.45
2018-04-17T00:54:42.450Z,13.42
2018-04-17T00:57:10.122Z,13.40
2018-04-17T00:59:37.576Z,13.36
2018-04-17T01:02:05.091Z,13.35
2018-04-17T01:04:32.618Z,13.36
2018-04-17T01:07:00.087Z,13.35
2018-04-17T01:09:27.558Z,13.34
2018-04-17T01:11:55.017Z,13.31
2018-04-17T01:14:22.551Z,13.32
2018-04-17T01:16:49.999Z,13.32
2018-04-17T01:19:17.581Z,13.28
2018-04-17T01:21:45.119Z,13.25
2018-04-17T01:24:12.630Z,13.23
2018-04-17T01:26:40.170Z,13.22
2018-04-17T01:29:07.696Z,13.21
2018-04-17T01:31:35.158Z,13.18
2018-04-17T01:34:02.796Z,13.21
2018-04-17T01:36:30.314Z,13.18
2018-04-17T01:38:57.893Z,13.11
2018-04-17T01:41:25.399Z,13.08
2018-04-17T01:43:53.091Z,13.08
2018-04-17T01:46:20.616Z,13.05
2018-04-17T01:48:48.135Z,13.05
2018-04-17T01:51:15.612Z,13.04
2018-04-17T01:53:43.206Z,13.04
2018-04-17T01:56:10.700Z,13.00
2018-04-17T01:58:38.191Z,12.94
2018-04-17T02:01:05.762Z,12.93
2018-04-17T02:03:33.279Z,12.91
2018-04-17T02:06:00.983Z,12.89
2018-04-17T02:08:28.536Z,12.88
2018-04-17T02:10:56.016Z,12.88
2018-04-17T02:13:23.488Z,12.88
2018-04-17T02:15:51.029Z,12.91
2018-04-17T02:18:18.975Z,12.87
2018-04-17T02:20:46.555Z,12.84
2018-04-17T02:23:14.248Z,12.82
2018-04-17T02:25:41.774Z,12.81
2018-04-17T02:28:11.840Z,12.81
2018-04-17T02:30:39.647Z,12.79
2018-04-17T02:33:07.413Z,12.79
2018-04-17T02:35:34.973Z,12.77
2018-04-17T02:38:08.057Z,12.75
2018-04-17T02:40:35.705Z,12.76
2018-04-17T02:43:04.303Z,12.73
2018-04-17T02:45:36.735Z,12.74
2018-04-17T02:48:04.427Z,12.74
2018-04-17T02:50:31.969Z,12.73
2018-04-17T02:52:59.778Z,12.74
2018-04-17T03:07:07.495Z,12.60
2018-04-17T03:09:35.419Z,12.62
2018-04-17T03:12:02.924Z,12.62
2018-04-17T03:14:30.595Z,12.64
2018-04-17T03:16:58.096Z,12.66
2018-04-17T03:19:25.620Z,12.70
2018-04-17T03:21:54.102Z,12.72
2018-04-17T03:24:21.698Z,12.74
2018-04-17T03:26:49.759Z,12.78
2018-04-17T03:29:17.348Z,12.84
2018-04-17T03:31:44.927Z,12.79
2018-04-17T03:34:13.405Z,12.75
2018-04-17T03:36:40.942Z,12.70
2018-04-17T03:39:08.514Z,12.73
2018-04-17T03:41:36.391Z,12.70
2018-04-17T03:44:04.012Z,12.73
2018-04-17T03:46:31.839Z,12.72
2018-04-17T03:49:00.014Z,12.75
2018-04-17T03:51:27.630Z,12.75
2018-04-17T03:53:55.297Z,12.77
2018-04-17T03:56:22.946Z,12.73
2018-04-17T03:58:50.635Z,12.78
2018-04-17T04:01:18.251Z,12.77
2018-04-17T04:03:45.753Z,12.79
2018-04-17T04:06:13.213Z,12.76
2018-04-17T04:08:42.671Z,12.76
2018-04-17T04:11:10.156Z,12.77
2018-04-17T04:13:37.894Z,12.75
2018-04-17T04:16:06.102Z,12.75
2018-04-17T04:18:45.767Z,12.76
2018-04-17T04:21:25.098Z,12.75
2018-04-17T04:24:09.466Z,12.80
2018-04-17T04:26:36.992Z,12.76
2018-04-17T04:29:04.479Z,12.78
2018-04-17T04:31:31.952Z,12.78
2018-04-17T04:33:59.489Z,12.75
2018-04-17T04:36:27.714Z,12.78
2018-04-17T04:38:55.190Z,12.79
2018-04-17T04:41:22.954Z,12.80
2018-04-17T04:43:50.419Z,12.79
2018-04-17T04:46:18.700Z,12.71
2018-04-17T04:48:46.572Z,12.75
2018-04-17T04:51:14.036Z,12.77
2018-04-17T04:53:41.539Z,12.74
2018-04-17T04:56:09.362Z,12.74
2018-04-17T04:58:37.024Z,12.75
2018-04-17T05:01:04.780Z,12.73
2018-04-17T05:03:32.472Z,12.74
2018-04-17T05:06:00.200Z,12.77
2018-04-17T05:08:28.028Z,12.74
2018-04-17T05:10:55.520Z,12.72
2018-04-17T05:13:23.254Z,12.71
2018-04-17T05:15:50.739Z,12.71
2018-04-17T05:18:18.621Z,12.75
2018-04-17T05:20:46.113Z,12.71
2018-04-17T05:23:14.015Z,12.72
2018-04-17T05:25:42.379Z,12.74
2018-04-17T05:28:11.539Z,12.72
2018-04-17T05:30:39.140Z,12.72
2018-04-17T05:33:07.505Z,12.71
2018-04-17T05:35:35.148Z,12.71
2018-04-17T05:38:02.619Z,12.71
2018-04-17T05:40:30.147Z,12.77
2018-04-17T05:42:57.599Z,12.79
2018-04-17T05:45:25.115Z,12.76
2018-04-17T05:47:55.921Z,12.76
2018-04-17T05:50:23.489Z,12.84
2018-04-17T05:52:51.489Z,12.83
2018-04-17T05:55:19.187Z,12.83
2018-04-17T05:57:47.381Z,12.84
2018-04-17T06:00:14.928Z,12.86
2018-04-17T06:02:42.431Z,12.90
2018-04-17T06:05:09.918Z,12.88
2018-04-17T06:07:37.459Z,12.91
2018-04-17T06:10:05.675Z,12.91
2018-04-17T06:12:34.559Z,12.95
2018-04-17T06:15:03.439Z,12.95
2018-04-17T06:17:30.922Z,12.97
2018-04-17T06:19:58.511Z,13.02
2018-04-17T06:22:26.923Z,13.04
2018-04-17T06:27:52.697Z,13.07
2018-04-17T06:30:20.413Z,13.06
2018-04-17T06:32:50.694Z,13.09
2018-04-17T06:35:18.428Z,13.08
2018-04-17T06:37:46.002Z,13.11
2018-04-17T06:40:13.574Z,13.14
2018-04-17T06:42:42.235Z,13.32
2018-04-17T06:45:33.486Z,13.48
2018-04-17T06:48:00.950Z,13.60
2018-04-17T06:50:28.673Z,13.61
2018-04-17T06:52:56.156Z,13.69
2018-04-17T06:55:38.438Z,13.75
2018-04-17T06:58:06.002Z,13.86
2018-04-17T07:00:33.530Z,13.90
2018-04-17T07:03:01.555Z,14.00
2018-04-17T07:05:52.769Z,14.03
2018-04-17T07:08:20.277Z,14.07
2018-04-17T07:10:50.313Z,14.15
2018-04-17T07:13:18.569Z,14.21
2018-04-17T07:15:46.181Z,14.20
2018-04-17T07:18:14.705Z,14.22
2018-04-17T07:20:42.505Z,14.26
2018-04-17T07:23:10.195Z,14.26
2018-04-17T07:25:37.707Z,14.34
2018-04-17T07:28:05.253Z,14.29
2018-04-17T07:30:32.829Z,14.36
2018-04-17T07:33:00.337Z,14.44
2018-04-17T07:35:27.900Z,14.51
2018-04-17T07:37:55.486Z,14.66
2018-04-17T07:40:24.010Z,14.67
2018-04-17T07:42:52.039Z,14.69
2018-04-17T07:45:19.770Z,14.64
2018-04-17T07:47:56.723Z,14.58
2018-04-17T07:50:24.233Z,14.65
2018-04-17T07:52:51.765Z,14.71
2018-04-17T07:55:19.254Z,14.74
2018-04-17T07:57:47.510Z,14.85
2018-04-17T08:00:14.989Z,14.94
2018-04-17T08:02:42.551Z,14.97
2018-04-17T08:05:10.044Z,14.96
2018-04-17T08:07:37.524Z,15.14
2018-04-17T08:10:05.797Z,15.26
2018-04-17T08:12:33.331Z,15.27
2018-04-17T08:15:00.829Z,15.39
2018-04-17T08:17:28.366Z,15.43
2018-04-17T08:19:56.113Z,15.59
2018-04-17T08:22:23.643Z,15.59
2018-04-17T08:24:51.155Z,15.66
2018-04-17T08:27:19.474Z,15.78
2018-04-17T08:29:47.106Z,15.88
2018-04-17T08:32:15.538Z,16.07
2018-04-17T08:34:43.882Z,16.21
2018-04-17T08:37:11.927Z,16.40
2018-04-17T08:39:40.202Z,16.32
2018-04-17T08:42:08.932Z,16.43
2018-04-17T08:44:36.401Z,16.46
2018-04-17T08:47:03.854Z,16.47
2018-04-17T08:49:31.434Z,16.55
2018-04-17T08:51:59.029Z,16.48
2018-04-17T08:54:26.567Z,16.49
2018-04-17T08:56:54.027Z,16.59
2018-04-17T08:59:21.514Z,16.69
2018-04-17T09:01:49.938Z,16.73
2018-04-17T09:04:17.437Z,16.86
2018-04-17T09:06:44.912Z,16.97
2018-04-17T09:09:12.858Z,16.94
2018-04-17T09:11:40.364Z,16.74
2018-04-17T09:14:07.958Z,16.82
2018-04-17T09:16:35.512Z,16.91
2018-04-17T09:19:03.368Z,17.20
2018-04-17T09:21:30.848Z,17.42
2018-04-17T09:23:58.536Z,17.62
2018-04-17T09:26:25.983Z,17.65
2018-04-17T09:28:53.430Z,17.84
2018-04-17T09:31:20.995Z,17.90
2018-04-17T09:33:48.514Z,18.10
2018-04-17T09:36:16.629Z,18.19
2018-04-17T09:38:44.137Z,18.05
2018-04-17T09:41:11.693Z,17.79
2018-04-17T09:43:39.158Z,17.64
2018-04-17T09:46:06.667Z,17.68
2018-04-17T09:48:34.141Z,17.91
2018-04-17T09:51:01.670Z,18.11
2018-04-17T09:53:29.996Z,18.38
2018-04-17T09:55:57.563Z,18.60
2018-04-17T09:58:25.123Z,18.64
2018-04-17T10:01:04.320Z,18.74
2018-04-17T10:03:31.834Z,18.95
2018-04-17T10:06:00.715Z,19.28
2018-04-17T10:08:28.276Z,19.41
2018-04-17T10:10:55.722Z,19.64
2018-04-17T10:13:23.238Z,19.75
2018-04-17T10:15:50.746Z,20.07
2018-04-17T10:18:18.219Z,20.28
2018-04-17T10:20:45.701Z,20.56
2018-04-17T10:23:13.229Z,20.74
2018-04-17T10:25:40.964Z,20.72
2018-04-17T10:28:08.694Z,20.99
2018-04-17T10:30:36.363Z,20.64
2018-04-17T10:33:03.892Z,20.76
2018-04-17T10:35:31.343Z,21.28
2018-04-17T10:37:58.904Z,21.59
2018-04-17T10:40:26.362Z,21.72
2018-04-17T10:42:53.904Z,22.30
2018-04-17T10:45:21.384Z,22.60
2018-04-17T10:47:48.876Z,22.70
2018-04-17T10:50:16.328Z,22.54
2018-04-17T10:52:43.816Z,22.55
2018-04-17T10:55:11.308Z,22.37
2018-04-17T10:57:38.844Z,22.00
2018-04-17T11:00:06.308Z,21.48
2018-04-17T11:02:33.838Z,20.72
2018-04-17T11:05:01.324Z,20.16
2018-04-17T11:07:28.817Z,19.99
2018-04-17T11:09:56.290Z,20.20
2018-04-17T11:12:23.761Z,20.54
2018-04-17T11:14:51.304Z,20.78
2018-04-17T11:17:18.911Z,21.35
2018-04-17T11:19:46.392Z,22.30
2018-04-17T11:22:13.925Z,23.00
2018-04-17T11:24:41.408Z,24.62
2018-04-17T11:27:08.861Z,25.67
2018-04-17T11:29:36.362Z,25.16
2018-04-17T11:32:03.862Z,25.99
2018-04-17T11:34:31.445Z,27.08
2018-04-17T11:36:58.927Z,28.00
2018-04-17T11:39:26.400Z,27.37
2018-04-17T11:41:54.012Z,26.47
2018-04-17T11:44:21.528Z,24.77
2018-04-17T11:46:49.093Z,23.35
2018-04-17T11:49:16.628Z,22.48
2018-04-17T11:51:44.140Z,22.13
2018-04-17T11:54:11.623Z,22.11
2018-04-17T11:56:39.110Z,21.72
2018-04-17T11:59:06.614Z,21.35
2018-04-17T12:01:34.088Z,21.48
2018-04-17T12:04:01.638Z,21.15
2018-04-17T12:06:29.233Z,20.56
2018-04-17T12:08:57.580Z,20.26
2018-04-17T12:11:25.092Z,20.14
2018-04-17T12:13:52.942Z,20.10
2018-04-17T12:16:20.407Z,19.99
2018-04-17T12:18:47.923Z,19.84
2018-04-17T12:21:15.380Z,19.74
2018-04-17T12:23:42.948Z,19.59
2018-04-17T12:26:10.554Z,19.52
2018-04-17T12:28:38.039Z,19.51
2018-04-17T12:31:05.550Z,19.53
2018-04-17T12:33:33.085Z,19.54
2018-04-17T12:36:00.593Z,19.49
2018-04-17T12:38:28.080Z,19.57
2018-04-17T12:40:55.543Z,19.67
2018-04-17T12:43:23.015Z,20.01
2018-04-17T12:45:50.467Z,21.58
2018-04-17T12:48:17.963Z,23.11
2018-04-17T12:50:45.408Z,23.07
2018-04-17T12:53:12.879Z,23.24
2018-04-17T12:55:40.495Z,23.30
2018-04-17T12:58:07.981Z,22.95
2018-04-17T13:00:35.455Z,22.40
2018-04-17T13:03:02.915Z,21.67
2018-04-17T13:05:30.406Z,21.01
2018-04-17T13:07:57.891Z,20.80
2018-04-17T13:10:25.502Z,20.32
2018-04-17T13:12:53.049Z,20.50
2018-04-17T13:15:20.495Z,21.74
2018-04-17T13:17:47.992Z,22.79
2018-04-17T13:20:15.472Z,23.14
2018-04-17T13:22:42.934Z,23.01
2018-04-17T13:25:10.425Z,22.86
2018-04-17T13:27:37.877Z,23.05
2018-04-17T13:30:05.426Z,23.22
2018-04-17T13:32:32.903Z,23.43
2018-04-17T13:35:00.383Z,23.61
2018-04-17T13:37:27.897Z,23.86
2018-04-17T13:39:55.374Z,23.86
2018-04-17T13:42:22.852Z,23.77
2018-04-17T13:44:50.393Z,23.81
2018-04-17T13:47:17.899Z,23.94
2018-04-17T13:49:45.352Z,23.93
2018-04-17T13:52:12.868Z,23.80
2018-04-17T13:54:40.372Z,23.96
2018-04-17T13:57:07.848Z,24.06
2018-04-17T13:59:35.300Z,23.99
2018-04-17T14:02:02.818Z,23.91
2018-04-17T14:04:30.400Z,23.85
2018-04-17T14:06:58.706Z,23.89
2018-04-17T14:09:26.285Z,23.88
2018-04-17T14:11:53.964Z,23.83
2018-04-17T14:14:21.533Z,23.78
2018-04-17T14:16:49.172Z,23.68
2018-04-17T14:19:16.670Z,23.77
2018-04-17T14:21:44.206Z,23.81
2018-04-17T14:24:11.669Z,23.66
2018-04-17T14:26:39.537Z,23.58
2018-04-17T14:29:07.012Z,23.63
2018-04-17T14:31:34.527Z,23.63
2018-04-17T14:34:02.026Z,23.47
2018-04-17T14:36:29.505Z,23.31
2018-04-17T14:38:57.937Z,23.13
2018-04-17T14:41:25.434Z,23.11
2018-04-17T14:43:52.959Z,23.06
2018-04-17T14:46:20.411Z,22.93
2018-04-17T14:48:47.904Z,22.93
2018-04-17T14:51:15.400Z,22.80
2018-04-17T14:53:43.082Z,22.55
2018-04-17T14:56:10.599Z,22.26
2018-04-17T14:58:38.054Z,22.08
2018-04-17T15:01:05.507Z,21.94
2018-04-17T15:03:33.004Z,21.72
2018-04-17T15:06:00.490Z,21.63
2018-04-17T15:08:27.990Z,21.60
2018-04-17T15:10:55.504Z,21.54
2018-04-17T15:13:23.012Z,21.56
2018-04-17T15:15:50.544Z,21.45
2018-04-17T15:18:18.023Z,21.36
2018-04-17T15:20:45.577Z,21.33
2018-04-17T15:23:13.042Z,21.26
2018-04-17T15:25:40.595Z,21.25
2018-04-17T15:28:08.117Z,21.18
2018-04-17T15:30:35.654Z,21.16
2018-04-17T15:33:03.150Z,21.08
2018-04-17T15:35:30.612Z,21.10
2018-04-17T15:37:58.081Z,21.04
2018-04-17T15:40:25.590Z,20.91
2018-04-17T15:42:53.047Z,20.88
2018-04-17T15:45:20.621Z,20.83
2018-04-17T15:47:48.097Z,20.75
2018-04-17T15:50:15.823Z,20.67
2018-04-17T15:52:43.289Z,20.65
2018-04-17T15:55:10.933Z,20.57
2018-04-17T15:57:38.395Z,20.56
2018-04-17T16:00:05.882Z,20.55
2018-04-17T16:02:33.349Z,20.54
2018-04-17T16:05:00.872Z,20.48
2018-04-17T16:07:28.447Z,20.45
2018-04-17T16:09:55.942Z,20.43
2018-04-17T16:12:23.529Z,20.39
2018-04-17T16:14:52.029Z,20.35
2018-04-17T16:17:20.205Z,20.34
2018-04-17T16:19:47.683Z,20.29
2018-04-17T16:22:15.136Z,20.27
2018-04-17T16:24:42.610Z,20.26
2018-04-17T16:27:10.171Z,20.22
2018-04-17T16:29:37.661Z,20.20
2018-04-17T16:32:05.119Z,20.19
2018-04-17T16:34:32.605Z,20.18
2018-04-17T16:37:00.067Z,20.19
2018-04-17T16:39:27.537Z,20.15
2018-04-17T16:41:55.003Z,20.10
2018-04-17T16:44:22.460Z,20.02
2018-04-17T16:46:49.938Z,19.94
2018-04-17T16:49:17.445Z,19.89
2018-04-17T16:51:45.039Z,19.83
2018-04-17T16:54:12.433Z,19.80
2018-04-17T16:56:40.276Z,19.77
2018-04-17T16:59:07.753Z,19.74
2018-04-17T17:01:35.253Z,19.71
2018-04-17T17:04:02.726Z,19.66
2018-04-17T17:06:30.183Z,19.65
2018-04-17T17:08:57.669Z,19.61
2018-04-17T17:11:25.556Z,19.59
2018-04-17T17:13:54.023Z,19.50
2018-04-17T17:16:24.216Z,19.44
2018-04-17T17:18:54.559Z,19.37
2018-04-17T17:21:22.218Z,19.31
2018-04-17T17:23:49.709Z,19.29
2018-04-17T17:26:17.452Z,19.24
2018-04-17T17:28:45.230Z,19.23
2018-04-17T17:31:12.787Z,19.17
2018-04-17T17:33:40.309Z,19.15
2018-04-17T17:36:07.976Z,19.08
2018-04-17T17:38:35.473Z,18.96
2018-04-17T17:41:03.053Z,18.90
2018-04-17T17:43:30.655Z,18.84
2018-04-17T17:45:58.152Z,18.81
2018-04-17T17:48:25.794Z,18.77
2018-04-17T17:50:53.310Z,18.77
2018-04-17T17:53:20.801Z,18.77
2018-04-17T17:55:48.332Z,18.76
2018-04-17T17:58:15.791Z,18.77
2018-04-17T18:00:43.641Z,18.71
2018-04-17T18:03:11.180Z,18.67
2018-04-17T18:05:38.710Z,18.63
2018-04-17T18:08:06.259Z,18.59
2018-04-17T18:10:33.820Z,18.55
2018-04-17T18:13:01.287Z,18.52
2018-04-17T18:15:28.753Z,18.49
2018-04-17T18:17:56.211Z,18.49
2018-04-17T18:20:23.688Z,18.44
2018-04-17T18:22:51.332Z,18.42
2018-04-17T18:25:28.617Z,18.37
2018-04-17T18:27:56.169Z,18.34
2018-04-17T18:30:23.669Z,18.31
2018-04-17T18:32:51.224Z,18.27
2018-04-17T18:35:18.720Z,18.26
2018-04-17T18:37:46.212Z,18.25
2018-04-17T18:40:13.764Z,18.26
2018-04-17T18:42:41.473Z,18.25
2018-04-17T18:45:09.200Z,18.19
2018-04-17T18:47:36.768Z,18.13
2018-04-17T18:50:04.309Z,18.10
2018-04-17T18:52:31.873Z,18.11
2018-04-17T18:54:59.371Z,18.11
2018-04-17T18:57:26.864Z,18.07
2018-04-17T18:59:54.396Z,18.05
2018-04-17T19:02:21.897Z,18.03
2018-04-17T19:04:49.751Z,18.00
2018-04-17T19:07:18.303Z,17.99
2018-04-17T19:09:46.258Z,17.93
2018-04-17T19:12:13.783Z,17.89
2018-04-17T19:14:41.296Z,17.87
2018-04-17T19:17:08.828Z,17.85
2018-04-17T19:19:36.298Z,17.84
2018-04-17T19:22:03.817Z,17.81
2018-04-17T19:24:31.328Z,17.79
2018-04-17T19:26:58.802Z,17.78
2018-04-17T19:29:26.295Z,17.76
2018-04-17T19:31:53.825Z,17.72
2018-04-17T19:34:21.357Z,17.70
2018-04-17T19:36:49.020Z,17.68
2018-04-17T19:39:16.500Z,17.66
2018-04-17T19:41:43.965Z,17.60
2018-04-17T19:44:11.549Z,17.58
2018-04-17T19:46:39.062Z,17.58
2018-04-17T19:49:06.566Z,17.52
2018-04-17T19:51:34.068Z,17.53
2018-04-17T19:54:01.576Z,17.49
2018-04-17T19:56:29.142Z,17.45
2018-04-17T19:58:56.640Z,17.45
2018-04-17T20:01:24.166Z,17.47
2018-04-17T20:03:51.675Z,17.41
2018-04-17T20:06:19.368Z,17.37
2018-04-17T20:08:46.855Z,17.38
2018-04-17T20:11:14.429Z,17.36
2018-04-17T20:13:42.135Z,17.35
2018-04-17T20:16:09.656Z,17.35
2018-04-17T20:18:37.152Z,17.33
2018-04-17T20:21:04.681Z,17.30
2018-04-17T20:23:32.278Z,17.23
2018-04-17T20:25:59.772Z,17.20
2018-04-17T20:28:27.629Z,17.16
2018-04-17T20:30:55.120Z,17.16
2018-04-17T20:33:22.630Z,17.12
2018-04-17T20:35:50.137Z,17.10
2018-04-17T20:38:17.670Z,17.05
2018-04-17T20:40:45.177Z,17.04
2018-04-17T20:43:13.723Z,17.02
2018-04-17T20:45:41.286Z,17.04
2018-04-17T20:48:08.874Z,17.02
2018-04-17T20:50:36.458Z,17.03
2018-04-17T20:53:04.491Z,16.98
2018-04-17T20:55:46.278Z,17.00
2018-04-17T20:58:13.835Z,16.99
2018-04-17T21:00:41.350Z,16.98
2018-04-17T21:03:08.835Z,16.97
2018-04-17T21:05:36.397Z,16.96
2018-04-17T21:08:03.920Z,16.89
2018-04-17T21:10:31.405Z,16.87
2018-04-17T21:12:58.888Z,16.88
2018-04-17T21:15:26.369Z,16.84
2018-04-17T21:17:53.826Z,16.82
2018-04-17T21:20:22.269Z,16.82
2018-04-17T21:22:49.712Z,16.80
2018-04-17T21:25:17.198Z,16.79
2018-04-17T21:27:44.670Z,16.80
2018-04-17T21:30:12.118Z,16.73
2018-04-17T21:32:39.582Z,16.70
2018-04-17T21:35:07.111Z,16.71
2018-04-17T21:37:34.655Z,16.70
2018-04-17T21:40:02.449Z,16.66
2018-04-17T21:42:29.935Z,16.62
2018-04-17T21:44:57.516Z,16.59
2018-04-17T21:47:24.990Z,16.56
2018-04-17T21:49:52.552Z,16.54
2018-04-17T21:52:20.126Z,16.50
2018-04-17T21:54:47.611Z,16.49
2018-04-17T21:57:15.068Z,16.46
2018-04-17T21:59:42.522Z,16.47
2018-04-17T22:02:09.997Z,16.40
2018-04-17T22:04:37.516Z,16.39
2018-04-17T22:07:05.027Z,16.38
2018-04-17T22:09:33.380Z,16.36
2018-04-17T22:12:00.952Z,16.31
2018-04-17T22:14:28.418Z,16.30
2018-04-17T22:16:59.025Z,16.27
2018-04-17T22:19:26.558Z,16.22
2018-04-17T22:21:54.042Z,16.21
2018-04-17T22:24:21.560Z,16.19
2018-04-17T22:26:49.275Z,16.15
2018-04-17T22:29:17.016Z,16.17
2018-04-17T22:31:44.820Z,16.10
2018-04-17T22:34:12.326Z,16.09
2018-04-17T22:36:39.786Z,16.07
2018-04-17T22:39:07.268Z,16.03
2018-04-17T22:41:34.761Z,16.03
2018-04-17T22:44:02.244Z,15.99
2018-04-17T22:46:29.703Z,15.92
2018-04-17T22:48:57.190Z,15.92
2018-04-17T22:51:24.642Z,15.88
2018-04-17T22:53:52.142Z,15.85
2018-04-17T22:56:19.590Z,15.82
2018-04-17T22:58:47.202Z,15.80
2018-04-17T23:01:14.671Z,15.78
2018-04-17T23:03:42.494Z,15.74
2018-04-17T23:06:09.974Z,15.74
2018-04-17T23:08:38.178Z,15.69
2018-04-17T23:11:05.662Z,15.69
2018-04-17T23:13:33.170Z,15.73
2018-04-17T23:16:00.618Z,15.64
2018-04-17T23:18:28.078Z,15.67
2018-04-17T23:20:55.536Z,15.68
2018-04-17T23:23:22.987Z,15.64
2018-04-17T23:25:50.474Z,15.60
2018-04-17T23:28:17.926Z,15.58
2018-04-17T23:30:45.381Z,15.53
2018-04-17T23:33:12.817Z,15.50
2018-04-17T23:35:40.296Z,15.43
2018-04-17T23:38:07.742Z,15.35
2018-04-17T23:40:35.188Z,15.33
2018-04-17T23:43:02.649Z,15.36
2018-04-17T23:45:30.104Z,15.36
2018-04-17T23:47:57.595Z,15.35
2018-04-17T23:50:25.026Z,15.36
2018-04-17T23:52:52.482Z,15.36
2018-04-17T23:55:19.970Z,15.31
2018-04-17T23:57:47.424Z,15.30
